• Join FlightAware (Why Join?)
  • Login
  • US Flag 
07:56AM EDT


 

Airport Tracker/Info


-or-


 

Live Flight TrackerFlight Track Log ✈ A6-EGC ✈ 22-Apr-2013 ✈ KIAD - OMDB / DXB

Flight Track Log - Related Links

Times and Time Zones

All times are in EDT time to prevent confusion due to time zone crossing. See the A6-EGC flight status page for this flight to view local times or setup timezone preferences in your user account.

Time Position Orientation Groundspeed Altitude Reporting Facility
EDT Latitude Longitude Course Direction KTS MPH feet Rate Location/Type
11:13AM 38.9660 -77.5260 340° North 198 228 1,500  Level FlightAware
11:13AM 38.9850 -77.5280 355° North 229 264 1,800 1,560 Climbing FlightAware
11:14AM 39.0150 -77.5300 357° North 254 292 2,700 2,400 Climbing FlightAware
11:14AM 39.0330 -77.5310 358° North 257 296 3,400 2,880 Climbing FlightAware
11:14AM 39.0700 -77.5330 358° North 268 308 4,900 2,940 Climbing FlightAware
11:15AM 39.0990 -77.5350 357° North 271 312 6,100 2,700 Climbing FlightAware
11:15AM 39.1350 -77.5210 17° North 276 318 7,400 2,520 Climbing FlightAware
11:15AM 39.1460 -77.5030 52° Northeast 279 321 8,000 1,500 Climbing FlightAware
11:16AM 39.1630 -77.4610 62° Northeast 289 333 8,400 780 Climbing FlightAware
11:16AM 39.1660 -77.4530 64° Northeast 289 333 8,400  Level FlightAware
11:17AM 39.1910 -77.3940 61° Northeast 287 330 8,400  Level FlightAware
11:17AM 39.2060 -77.3560 63° Northeast 287 330 8,400  Level FlightAware
11:18AM 39.2240 -77.3130 62° Northeast 287 330 8,400 180 Level FlightAware
11:18AM 39.2440 -77.2650 62° Northeast 286 329 8,600 600 Climbing FlightAware
11:18AM 39.2600 -77.2270 61° Northeast 291 335 9,000 1,500 Climbing FlightAware
11:19AM 39.2790 -77.1800 62° Northeast 301 346 10,000 1,320 Climbing FlightAware
11:20AM 39.3070 -77.1120 62° Northeast 354 407 10,600 1,320 Climbing FlightAware
11:20AM 39.3340 -77.0190 69° East 386 444 11,900 2,100 Climbing FlightAware
11:21AM 39.3270 -76.9360 96° East 395 455 13,400 2,520 Climbing FlightAware
11:22AM 39.3150 -76.8440 100° East 406 467 15,100 2,280 Climbing FlightAware
11:22AM 39.3020 -76.7390 99° East 422 486 16,700 2,520 Climbing FlightAware
11:22AM 39.2960 -76.6942 100° East 427 491 17,300 2,760 Climbing FlightAware ADS-B
11:23AM 39.2861 -76.6148 99° East 434 499 18,500 2,280 Climbing FlightAware ADS-B
11:24AM 39.2763 -76.5369 99° East 438 504 19,700 2,220 Climbing FlightAware ADS-B
11:24AM 39.2662 -76.4564 99° East 444 511 20,800 1,980 Climbing FlightAware ADS-B
11:25AM 39.2561 -76.3768 99° East 448 516 21,800 1,860 Climbing FlightAware ADS-B
11:25AM 39.2455 -76.2950 99° East 455 524 22,700 1,140 Climbing FlightAware ADS-B
11:26AM 39.2347 -76.2125 100° East 460 529 23,000 240 Climbing FlightAware ADS-B
11:26AM 39.2241 -76.1304 99° East 460 529 23,000  Level FlightAware ADS-B
11:27AM 39.2128 -76.0438 100° East 461 531 23,000  Level FlightAware ADS-B
11:27AM 39.2021 -75.9613 99° East 463 533 23,000  Level FlightAware ADS-B
11:27AM 39.2012 -75.9487 95° East 465 535 23,000  Level FlightAware ADS-B
11:27AM 39.2014 -75.9264 89° East 469 540 23,000  Level FlightAware ADS-B
11:27AM 39.2042 -75.9019 82° East 475 547 23,000  Level FlightAware ADS-B
11:28AM 39.2070 -75.8876 76° East 477 549 23,000  Level FlightAware ADS-B
11:28AM 39.2113 -75.8721 70° East 480 552 23,000  Level FlightAware ADS-B
11:28AM 39.2172 -75.8561 65° Northeast 482 555 23,000  Level FlightAware ADS-B
11:28AM 39.2274 -75.8359 57° Northeast 485 558 23,000  Level FlightAware ADS-B
11:28AM 39.2356 -75.8229 51° Northeast 486 559 23,000 300 Level FlightAware ADS-B
11:29AM 39.2831 -75.7606 45° Northeast 488 562 23,200 1,080 Climbing FlightAware ADS-B
11:29AM 39.3332 -75.6966 45° Northeast 492 566 24,100 1,560 Climbing FlightAware ADS-B
11:30AM 39.3833 -75.6326 45° Northeast 502 578 24,800 1,440 Climbing FlightAware ADS-B
11:30AM 39.4337 -75.5678 45° Northeast 508 585 25,600 1,320 Climbing FlightAware ADS-B
11:31AM 39.4843 -75.5020 45° Northeast 520 598 26,200 1,020 Climbing FlightAware ADS-B
11:31AM 39.5422 -75.4263 45° Northeast 531 611 26,700 840 Climbing FlightAware ADS-B
11:32AM 39.5952 -75.3568 45° Northeast 547 629 27,100 900 Climbing FlightAware ADS-B
11:32AM 39.6544 -75.2789 45° Northeast 557 641 27,700 900 Climbing FlightAware ADS-B
11:33AM 39.7097 -75.2010 47° Northeast 568 654 28,100 960 Climbing FlightAware ADS-B
11:33AM 39.7716 -75.1121 48° Northeast 577 664 28,800 1,020 Climbing FlightAware ADS-B
11:34AM 39.8421 -75.0096 48° Northeast 590 679 29,400 960 Climbing FlightAware ADS-B
11:34AM 39.9011 -74.9200 49° Northeast 598 688 30,000 1,200 Climbing FlightAware ADS-B
11:35AM 39.9568 -74.8351 49° Northeast 600 690 30,700 1,140 Climbing FlightAware ADS-B
11:35AM 40.0121 -74.7514 49° Northeast 606 697 31,200 1,200 Climbing FlightAware ADS-B
11:36AM 40.0721 -74.6607 49° Northeast 606 697 32,000 1,440 Climbing FlightAware ADS-B
11:37AM 40.1469 -74.5474 49° Northeast 604 695 33,000 780 Climbing FlightAware ADS-B
11:37AM 40.2063 -74.4573 49° Northeast 601 692 33,000  Level FlightAware ADS-B
11:38AM 40.2702 -74.3603 49° Northeast 599 689 33,000  Level FlightAware ADS-B
11:38AM 40.3242 -74.2779 49° Northeast 598 688 33,000  Level FlightAware ADS-B
11:39AM 40.3784 -74.1948 49° Northeast 599 689 33,000  Level FlightAware ADS-B
11:39AM 40.4366 -74.1053 49° Northeast 599 689 33,000  Level FlightAware ADS-B
11:40AM 40.5015 -74.0050 50° Northeast 600 690 33,000  Level FlightAware ADS-B
11:41AM 40.5564 -73.9200 50° Northeast 600 690 33,000  Level FlightAware ADS-B
11:41AM 40.6137 -73.8311 50° Northeast 600 690 33,000  Level FlightAware ADS-B
11:42AM 40.6691 -73.7446 50° Northeast 601 692 33,000  Level FlightAware ADS-B
11:42AM 40.7228 -73.6608 50° Northeast 602 693 33,000  Level FlightAware ADS-B
11:43AM 40.7870 -73.5604 50° Northeast 603 694 33,000  Level FlightAware ADS-B
11:43AM 40.8380 -73.4810 50° Northeast 603 694 33,000  Level FlightAware
11:43AM 40.8525 -73.4574 51° Northeast 603 694 33,000  Level FlightAware ADS-B
11:44AM 40.9090 -73.3682 50° Northeast 604 695 33,000  Level FlightAware ADS-B
11:44AM 40.9376 -73.3257 48° Northeast 605 696 33,000  Level FlightAware ADS-B
11:45AM 41.0021 -73.2362 46° Northeast 606 697 33,000  Level FlightAware ADS-B
11:45AM 41.0634 -73.1517 46° Northeast 607 699 33,000  Level FlightAware ADS-B
11:46AM 41.1335 -73.0541 46° Northeast 608 700 33,000  Level FlightAware ADS-B
11:47AM 41.2273 -72.9211 47° Northeast 610 702 33,000  Level FlightAware ADS-B
11:47AM 41.3043 -72.8108 47° Northeast 609 701 33,000  Level FlightAware ADS-B
11:48AM 41.3688 -72.7177 47° Northeast 610 702 33,000  Level FlightAware ADS-B
11:49AM 41.4780 -72.5600 47° Northeast 610 702 33,000  Level FlightAware
11:49AM 41.5540 -72.4490 48° Northeast 604 695 33,000  Level FlightAware
11:51AM 41.6800 -72.2670 47° Northeast 610 702 33,000  Level FlightAware
11:52AM 41.8530 -72.0120 48° Northeast 606 697 33,000  Level FlightAware
11:53AM 41.9280 -71.9030 47° Northeast 600 690 33,000  Level FlightAware
11:53AM 42.0070 -71.7850 48° Northeast 603 694 33,000  Level FlightAware
11:54AM 42.0900 -71.6610 48° Northeast 601 692 33,000  Level FlightAware
11:55AM 42.1660 -71.5490 48° Northeast 600 690 33,000  Level FlightAware
11:56AM 42.2400 -71.4370 48° Northeast 601 692 33,000  Level FlightAware
11:56AM 42.3240 -71.3120 48° Northeast 600 690 33,000  Level FlightAware
11:57AM 42.3980 -71.2000 48° Northeast 599 689 33,000  Level FlightAware
11:58AM 42.4710 -71.0890 48° Northeast 593 682 33,000  Level FlightAware
11:58AM 42.5540 -70.9630 48° Northeast 591 680 33,000  Level FlightAware
11:59AM 42.6190 -70.8640 48° Northeast 589 678 33,000  Level FlightAware
12:00PM 42.7100 -70.7250 48° Northeast 589 678 33,000  Level FlightAware
12:00PM 42.7820 -70.6150 48° Northeast 589 678 33,000  Level FlightAware
12:01PM 42.8550 -70.5030 48° Northeast 589 678 33,000  Level FlightAware
12:02PM 42.9370 -70.3760 49° Northeast 588 677 33,000  Level FlightAware
12:03PM 43.0040 -70.2710 49° Northeast 587 676 33,000  Level FlightAware
12:03PM 43.0860 -70.1430 49° Northeast 593 682 33,000  Level FlightAware
12:04PM 43.1610 -70.0260 49° Northeast 590 679 33,000  Level FlightAware
12:05PM 43.2460 -69.8930 49° Northeast 589 678 33,000  Level FlightAware
12:06PM 43.3360 -69.7500 49° Northeast 586 674 33,000  Level FlightAware
12:06PM 43.4110 -69.6330 49° Northeast 577 664 33,000  Level FlightAware
12:07PM 43.4900 -69.5060 49° Northeast 574 661 33,000  Level FlightAware
12:08PM 43.5590 -69.3950 49° Northeast 574 661 33,000  Level FlightAware
12:08PM 43.6300 -69.2810 49° Northeast 574 661 33,000  Level FlightAware
12:09PM 43.7070 -69.1580 49° Northeast 576 663 33,000  Level FlightAware
12:10PM 43.7740 -69.0490 50° Northeast 574 661 33,000  Level FlightAware
12:11PM 43.8530 -68.9200 50° Northeast 571 657 33,000  Level FlightAware
12:11PM 43.9130 -68.8240 49° Northeast 571 657 33,000  Level FlightAware
12:12PM 43.9890 -68.6970 50° Northeast 571 657 33,000  Level FlightAware
12:13PM 44.0560 -68.5880 49° Northeast 572 658 33,000  Level FlightAware
12:13PM 44.1380 -68.4520 50° Northeast 570 656 33,000  Level FlightAware
12:14PM 44.2060 -68.3390 50° Northeast 570 656 33,000  Level FlightAware
12:15PM 44.2790 -68.2170 50° Northeast 568 654 33,000  Level FlightAware
12:15PM 44.3440 -68.1080 50° Northeast 568 654 33,000  Level FlightAware
12:16PM 44.4250 -67.9730 50° Northeast 568 654 33,000  Level FlightAware
12:17PM 44.4890 -67.8650 50° Northeast 569 655 33,000  Level FlightAware
12:17PM 44.5580 -67.7470 51° Northeast 569 655 33,000  Level FlightAware
12:18PM 44.6310 -67.6220 51° Northeast 568 654 33,000  Level FlightAware
12:19PM 44.6980 -67.5090 50° Northeast 566 651 33,000  Level FlightAware
12:20PM 44.7750 -67.3770 51° Northeast 562 647 33,000  Level FlightAware
12:20PM 44.8370 -67.2700 51° Northeast 560 644 33,000  Level FlightAware
12:21PM 44.9020 -67.1580 51° Northeast 561 646 33,000  Level FlightAware
12:22PM 44.9640 -67.0540 50° Northeast 560 644 33,000  Level FlightAware
12:22PM 45.0430 -66.9230 49° Northeast 554 638 33,000  Level FlightAware
12:23PM 45.1110 -66.8120 49° Northeast 554 638 33,000  Level FlightAware
12:24PM 45.1840 -66.6890 50° Northeast 554 638 33,000  Level FlightAware
12:24PM 45.2520 -66.5760 49° Northeast 554 638 33,000  Level FlightAware
12:25PM 45.3190 -66.4620 50° Northeast 558 642 33,000  Level FlightAware
12:26PM 45.3920 -66.3390 50° Northeast 554 638 33,000  Level FlightAware
12:27PM 45.4610 -66.2210 50° Northeast 555 639 33,000  Level FlightAware
12:27PM 45.5330 -66.0970 50° Northeast 560 644 33,000  Level FlightAware
12:28PM 45.6010 -65.9810 50° Northeast 558 642 33,000  Level FlightAware
12:29PM 45.6650 -65.8710 50° Northeast 558 642 33,000  Level FlightAware
12:29PM 45.7390 -65.7430 50° Northeast 559 643 33,000  Level FlightAware
12:30PM 45.8040 -65.6300 50° Northeast 560 644 33,000  Level FlightAware
12:31PM 45.8820 -65.4940 50° Northeast 559 643 33,000  Level FlightAware
12:31PM 45.9460 -65.3820 51° Northeast 559 643 33,000  Level FlightAware
12:32PM 46.0160 -65.2590 51° Northeast 558 642 33,000  Level FlightAware
12:33PM 46.0850 -65.1360 51° Northeast 556 640 33,000  Level FlightAware
12:34PM 46.1640 -64.9990 50° Northeast 555 639 33,000  Level FlightAware
12:35PM 46.2340 -64.8780 50° Northeast 555 639 33,000  Level FlightAware
12:35PM 46.2900 -64.7810 50° Northeast 555 639 33,000  Level FlightAware
12:36PM 46.3460 -64.6840 50° Northeast 555 639 33,000  Level FlightAware
12:37PM 46.4020 -64.5870 50° Northeast 555 639 33,000  Level FlightAware
12:37PM 46.4580 -64.4900 50° Northeast 555 639 33,000  Level FlightAware
12:38PM 46.5280 -64.3690 50° Northeast 555 639 33,000  Level FlightAware
12:39PM 46.5850 -64.2720 49° Northeast 555 639 33,000  Level FlightAware
12:39PM 46.6410 -64.1740 50° Northeast 555 639 33,000  Level FlightAware
12:40PM 46.6970 -64.0770 50° Northeast 555 639 33,000  Level FlightAware
12:41PM 46.7530 -63.9790 50° Northeast 555 639 33,000  Level FlightAware
12:42PM 46.8230 -63.8570 50° Northeast 555 639 33,000  Level FlightAware
12:42PM 46.8790 -63.7590 50° Northeast 555 639 33,000  Level FlightAware
12:43PM 46.9350 -63.6620 50° Northeast 555 639 33,000  Level FlightAware
12:43PM 47.0500 -63.3667 50° Northeast 540 621 33,000  Level Moncton Center
12:44PM 47.1333 -63.1667 58° Northeast 540 621 33,000  Level Moncton Center
12:45PM 47.2167 -63.0167 51° Northeast 540 621 33,000  Level Moncton Center
12:46PM 47.3167 -62.8167 54° Northeast 540 621 33,000  Level Moncton Center
12:47PM 47.4000 -62.6667 51° Northeast 530 610 33,000  Level Moncton Center
12:48PM 47.5000 -62.4667 53° Northeast 540 621 33,000  Level Moncton Center
12:49PM 47.5833 -62.3167 50° Northeast 540 621 33,000  Level Moncton Center
12:50PM 47.6833 -62.1333 51° Northeast 540 621 33,000  Level Moncton Center
12:51PM 47.7167 -62.0500 59° Northeast 530 610 33,000  Level Gander Center
12:51PM 47.7500 -61.9500 64° Northeast 530 610 33,000  Level Moncton Center
12:52PM 47.8167 -61.8500 45° Northeast 530 610 33,000  Level Gander Center
12:52PM 47.8500 -61.7833 53° Northeast 530 610 33,000  Level Moncton Center
12:53PM 47.9000 -61.7000 48° Northeast 530 610 33,000  Level Gander Center
12:53PM 47.9333 -61.6000 64° Northeast 530 610 33,000  Level Moncton Center
12:54PM 48.0167 -61.4167 56° Northeast 520 598 33,000  Level Moncton Center
12:55PM 48.0667 -61.3333 48° Northeast 530 610 33,000  Level Gander Center
12:55PM 48.1167 -61.2333 53° Northeast 520 598 33,000  Level Moncton Center
12:56PM 48.1500 -61.1500 59° Northeast 520 598 33,000  Level Gander Center
12:56PM 48.1833 -61.0833 53° Northeast 520 598 33,000  Level Moncton Center
12:57PM 48.2833 -60.8667 55° Northeast 520 598 33,000  Level Moncton Center
12:58PM 48.3667 -60.7167 50° Northeast 520 598 33,000  Level Moncton Center
12:59PM 48.4500 -60.5333 56° Northeast 520 598 33,000  Level Moncton Center
01:00PM 48.5333 -60.3500 55° Northeast 520 598 33,000  Level Moncton Center
01:01PM 48.6167 -60.2000 50° Northeast 520 598 33,000  Level Moncton Center
01:02PM 48.6667 -60.1000 53° Northeast 520 598 33,000  Level Gander Center
01:02PM 48.7000 -60.0000 63° Northeast 520 598 33,000  Level Moncton Center
01:03PM 48.7833 -59.8167 55° Northeast 520 598 33,000  Level Moncton Center
01:04PM 48.8667 -59.6667 50° Northeast 520 598 33,000  Level Moncton Center
01:05PM 48.9167 -59.5500 57° Northeast 520 598 33,000  Level Gander Center
01:05PM 48.9500 -59.4500 63° Northeast 520 598 33,000  Level Moncton Center
01:06PM 49.0333 -59.2833 53° Northeast 520 598 33,000  Level Moncton Center
01:07PM 49.1167 -59.1000 55° Northeast 520 598 33,000  Level Moncton Center
01:08PM 49.1667 -59.0000 53° Northeast 520 598 33,000  Level Gander Center
01:08PM 49.2000 -58.9167 59° Northeast 520 598 33,000  Level Moncton Center
01:09PM 49.2667 -58.7500 58° Northeast 510 587 33,000  Level Moncton Center
01:10PM 49.3500 -58.5333 59° Northeast 510 587 33,000  Level Moncton Center
01:11PM 49.3833 -58.4500 58° Northeast 510 587 33,000  Level Gander Center
01:11PM 49.4167 -58.3667 58° Northeast 510 587 33,000  Level Moncton Center
01:12PM 49.4833 -58.1500 65° Northeast 520 598 33,000  Level Moncton Center
01:13PM 49.5167 -58.0667 58° Northeast 520 598 33,000  Level Gander Center
01:14PM 49.6000 -57.8833 55° Northeast 520 598 33,000  Level Gander Center
01:15PM 49.6667 -57.6833 63° Northeast 520 598 33,000  Level Gander Center
01:16PM 49.7167 -57.4833 69° East 520 598 33,000  Level Gander Center
01:17PM 49.8000 -57.3000 55° Northeast 510 587 33,000  Level Gander Center
01:18PM 49.8833 -57.0833 59° Northeast 520 598 33,000  Level Gander Center
01:19PM 49.9333 -56.8833 69° East 520 598 33,000  Level Gander Center
01:20PM 50.0167 -56.6833 57° Northeast 520 598 33,000  Level Gander Center
01:21PM 50.0667 -56.4833 69° East 510 587 33,000  Level Gander Center
01:22PM 50.1333 -56.3000 60° Northeast 510 587 33,000  Level Gander Center
01:27PM 50.4980 -55.2500 60° Northeast 520 598 33,000  Level FlightAware
01:28PM 50.5450 -55.1020 63° Northeast 520 598 33,000  Level FlightAware
01:28PM 50.5810 -54.9860 64° Northeast 519 597 33,000  Level FlightAware
01:29PM 50.6170 -54.8700 64° Northeast 519 597 33,000  Level FlightAware
01:30PM 50.6530 -54.7540 64° Northeast 519 597 33,000  Level FlightAware
01:30PM 50.6880 -54.6390 64° Northeast 519 597 33,000  Level FlightAware
01:31PM 50.7330 -54.4940 64° Northeast 519 597 33,000  Level FlightAware
01:32PM 50.7690 -54.3780 64° Northeast 519 597 33,000  Level FlightAware
01:33PM 50.8050 -54.2620 64° Northeast 519 597 33,000  Level FlightAware
01:33PM 50.9030 -53.9440 64° Northeast 33,000  Level FlightAware
01:35PM 50.9760 -53.7000 65° Northeast 527 606 33,000  Level FlightAware
01:36PM 51.0610 -53.4160 64° Northeast 527 606 33,000  Level FlightAware
01:37PM 51.1140 -53.2370 65° Northeast 526 605 33,000  Level FlightAware
01:38PM 51.1510 -53.1190 63° Northeast 526 605 33,000  Level FlightAware
01:38PM 51.1870 -53.0000 64° Northeast 526 605 33,000  Level FlightAware
01:39PM 51.2230 -52.8810 64° Northeast 526 605 33,000  Level FlightAware
01:40PM 51.2590 -52.7620 64° Northeast 526 605 33,000  Level FlightAware
01:40PM 51.3050 -52.6140 64° Northeast 526 605 33,000  Level FlightAware
01:41PM 51.3410 -52.4950 64° Northeast 526 605 33,000  Level FlightAware
01:42PM 51.3770 -52.3760 64° Northeast 526 605 33,000  Level FlightAware
01:42PM 51.4130 -52.2560 64° Northeast 526 605 33,000  Level FlightAware
01:43PM 51.4500 -52.1370 63° Northeast 526 605 33,000  Level FlightAware
01:44PM 51.4860 -52.0180 64° Northeast 526 605 33,000  Level FlightAware
01:45PM 51.5310 -51.8680 64° Northeast 526 605 33,000  Level FlightAware
01:45PM 51.5670 -51.7490 64° Northeast 526 605 33,000  Level FlightAware
01:46PM 51.6040 -51.6290 64° Northeast 526 605 33,000  Level FlightAware
01:47PM 51.7000 -51.0333 64° Northeast 540 621 33,000  Level Gander Center
01:48PM 51.7667 -50.8333 62° Northeast 540 621 33,000  Level Gander Center
01:49PM 51.8333 -50.6000 65° Northeast 550 633 33,000  Level Gander Center
01:51PM 51.9273 -50.2635 66° East  Level FlightAware Approximate
01:58PM 52.4352 -48.7819 59° Northeast  Level FlightAware Approximate
01:59PM 52.5088 -48.5698 60° Northeast  Level FlightAware Approximate
02:00PM 52.5820 -48.3570 60° Northeast  Level FlightAware Approximate
02:01PM 52.6549 -48.1435 61° Northeast  Level FlightAware Approximate
02:02PM 52.7274 -47.9293 61° Northeast  Level FlightAware Approximate
02:03PM 52.7995 -47.7144 61° Northeast  Level FlightAware Approximate
02:04PM 52.8712 -47.4987 61° Northeast  Level FlightAware Approximate
02:05PM 52.9425 -47.2824 61° Northeast  Level FlightAware Approximate
02:06PM 53.0134 -47.0653 61° Northeast  Level FlightAware Approximate
02:07PM 53.0840 -46.8475 62° Northeast  Level FlightAware Approximate
02:08PM 53.1541 -46.6290 62° Northeast  Level FlightAware Approximate
02:09PM 53.2238 -46.4098 62° Northeast  Level FlightAware Approximate
02:10PM 53.2931 -46.1899 62° Northeast  Level FlightAware Approximate
02:11PM 53.3620 -45.9693 62° Northeast  Level FlightAware Approximate
02:12PM 53.4306 -45.7479 62° Northeast  Level FlightAware Approximate
02:13PM 53.4987 -45.5259 63° Northeast  Level FlightAware Approximate
02:14PM 53.5663 -45.3031 63° Northeast  Level FlightAware Approximate
02:15PM 53.6336 -45.0796 63° Northeast  Level FlightAware Approximate
02:16PM 53.7005 -44.8554 63° Northeast  Level FlightAware Approximate
02:17PM 53.7669 -44.6305 63° Northeast  Level FlightAware Approximate
02:18PM 53.8329 -44.4049 64° Northeast  Level FlightAware Approximate
02:19PM 53.8985 -44.1786 64° Northeast  Level FlightAware Approximate
02:20PM 53.9636 -43.9516 64° Northeast  Level FlightAware Approximate
02:21PM 54.0284 -43.7238 64° Northeast  Level FlightAware Approximate
02:22PM 54.0927 -43.4954 64° Northeast  Level FlightAware Approximate
02:23PM 54.1565 -43.2662 64° Northeast  Level FlightAware Approximate
02:24PM 54.2200 -43.0364 65° Northeast  Level FlightAware Approximate
02:25PM 54.2830 -42.8058 65° Northeast  Level FlightAware Approximate
02:26PM 54.3455 -42.5745 65° Northeast  Level FlightAware Approximate
02:27PM 54.4076 -42.3426 65° Northeast  Level FlightAware Approximate
02:28PM 54.4693 -42.1099 65° Northeast  Level FlightAware Approximate
02:29PM 54.5305 -41.8765 66° East  Level FlightAware Approximate
02:30PM 54.5912 -41.6424 66° East  Level FlightAware Approximate
02:31PM 54.6515 -41.4077 66° East  Level FlightAware Approximate
02:32PM 54.7114 -41.1722 66° East  Level FlightAware Approximate
02:33PM 54.7708 -40.9360 66° East  Level FlightAware Approximate
02:34PM 54.8297 -40.6992 67° East  Level FlightAware Approximate
02:35PM 54.8882 -40.4616 67° East  Level FlightAware Approximate
02:36PM 54.9462 -40.2234 67° East  Level FlightAware Approximate
02:37PM 55.0039 -39.9846 66° East  Level FlightAware Approximate
02:38PM 55.0636 -39.7470 66° East  Level FlightAware Approximate
02:39PM 55.1228 -39.5086 66° East  Level FlightAware Approximate
02:40PM 55.1816 -39.2696 67° East  Level FlightAware Approximate
02:41PM 55.2399 -39.0298 67° East  Level FlightAware Approximate
02:42PM 55.2977 -38.7893 67° East  Level FlightAware Approximate
02:43PM 55.3551 -38.5482 67° East  Level FlightAware Approximate
02:44PM 55.4120 -38.3063 67° East  Level FlightAware Approximate
02:45PM 55.4684 -38.0638 68° East  Level FlightAware Approximate
02:46PM 55.5243 -37.8205 68° East  Level FlightAware Approximate
02:47PM 55.5798 -37.5766 68° East  Level FlightAware Approximate
02:48PM 55.6347 -37.3320 68° East  Level FlightAware Approximate
02:49PM 55.6892 -37.0867 68° East  Level FlightAware Approximate
02:50PM 55.7432 -36.8407 69° East  Level FlightAware Approximate
02:51PM 55.7966 -36.5941 69° East  Level FlightAware Approximate
02:52PM 55.8496 -36.3467 69° East  Level FlightAware Approximate
02:53PM 55.9021 -36.0987 69° East  Level FlightAware Approximate
02:54PM 55.9541 -35.8500 69° East  Level FlightAware Approximate
02:55PM 56.0056 -35.6007 70° East  Level FlightAware Approximate
02:56PM 56.0566 -35.3507 70° East  Level FlightAware Approximate
02:57PM 56.1071 -35.1000 70° East  Level FlightAware Approximate
02:58PM 56.1570 -34.8487 70° East  Level FlightAware Approximate
02:59PM 56.2065 -34.5967 70° East  Level FlightAware Approximate
03:00PM 56.2555 -34.3441 71° East  Level FlightAware Approximate
03:01PM 56.3039 -34.0908 71° East  Level FlightAware Approximate
03:02PM 56.3518 -33.8369 71° East  Level FlightAware Approximate
03:03PM 56.3992 -33.5824 71° East  Level FlightAware Approximate
03:04PM 56.4460 -33.3272 72° East  Level FlightAware Approximate
03:05PM 56.4924 -33.0714 72° East  Level FlightAware Approximate
03:06PM 56.5382 -32.8150 72° East  Level FlightAware Approximate
03:07PM 56.5835 -32.5580 72° East  Level FlightAware Approximate
03:08PM 56.6283 -32.3003 72° East  Level FlightAware Approximate
03:09PM 56.6725 -32.0421 73° East  Level FlightAware Approximate
03:10PM 56.7162 -31.7832 73° East  Level FlightAware Approximate
03:11PM 56.7593 -31.5238 73° East  Level FlightAware Approximate
03:12PM 56.8019 -31.2637 73° East  Level FlightAware Approximate
03:13PM 56.8440 -31.0031 73° East  Level FlightAware Approximate
03:14PM 56.8855 -30.7418 74° East  Level FlightAware Approximate
03:15PM 56.9265 -30.4800 74° East  Level FlightAware Approximate
03:16PM 56.9669 -30.2177 74° East  Level FlightAware Approximate
03:17PM 57.0065 -29.9546 75° East  Level FlightAware Approximate
03:18PM 57.0439 -29.6902 75° East  Level FlightAware Approximate
03:19PM 57.0808 -29.4252 76° East  Level FlightAware Approximate
03:20PM 57.1172 -29.1598 76° East  Level FlightAware Approximate
03:21PM 57.1530 -28.8938 76° East  Level FlightAware Approximate
03:22PM 57.1882 -28.6273 76° East  Level FlightAware Approximate
03:23PM 57.2228 -28.3603 76° East  Level FlightAware Approximate
03:24PM 57.2569 -28.0928 77° East  Level FlightAware Approximate
03:25PM 57.2904 -27.8248 77° East  Level FlightAware Approximate
03:26PM 57.3233 -27.5564 77° East  Level FlightAware Approximate
03:27PM 57.3557 -27.2874 77° East  Level FlightAware Approximate
03:28PM 57.3875 -27.0180 78° East  Level FlightAware Approximate
03:29PM 57.4187 -26.7481 78° East  Level FlightAware Approximate
03:30PM 57.4493 -26.4778 78° East  Level FlightAware Approximate
03:31PM 57.4794 -26.2070 78° East  Level FlightAware Approximate
03:32PM 57.5089 -25.9358 78° East  Level FlightAware Approximate
03:33PM 57.5378 -25.6641 79° East  Level FlightAware Approximate
03:34PM 57.5661 -25.3920 79° East  Level FlightAware Approximate
03:35PM 57.5938 -25.1195 79° East  Level FlightAware Approximate
03:36PM 57.6209 -24.8466 79° East  Level FlightAware Approximate
03:37PM 57.6475 -24.5733 80° East  Level FlightAware Approximate
03:38PM 57.6734 -24.2995 80° East  Level FlightAware Approximate
03:39PM 57.6988 -24.0254 80° East  Level FlightAware Approximate
03:40PM 57.7236 -23.7510 80° East  Level FlightAware Approximate
03:41PM 57.7477 -23.4761 81° East  Level FlightAware Approximate
03:42PM 57.7713 -23.2009 81° East  Level FlightAware Approximate
03:43PM 57.7943 -22.9253 81° East  Level FlightAware Approximate
03:44PM 57.8167 -22.6494 81° East  Level FlightAware Approximate
03:45PM 57.8385 -22.3731 81° East  Level FlightAware Approximate
03:46PM 57.8597 -22.0965 82° East  Level FlightAware Approximate
03:47PM 57.8802 -21.8196 82° East  Level FlightAware Approximate
03:48PM 57.9002 -21.5424 82° East  Level FlightAware Approximate
03:49PM 57.9196 -21.2649 82° East  Level FlightAware Approximate
03:50PM 57.9384 -20.9871 83° East  Level FlightAware Approximate
03:51PM 57.9565 -20.7090 83° East  Level FlightAware Approximate
03:52PM 57.9741 -20.4306 83° East  Level FlightAware Approximate
03:53PM 57.9910 -20.1519 83° East  Level FlightAware Approximate
03:54PM 58.0024 -19.8724 88° East  Level FlightAware Approximate
03:55PM 58.0072 -19.5919 88° East  Level FlightAware Approximate
03:56PM 58.0114 -19.3113 88° East  Level FlightAware Approximate
03:57PM 58.0150 -19.0306 88° East  Level FlightAware Approximate
03:58PM 58.0180 -18.7500 89° East  Level FlightAware Approximate
03:59PM 58.0204 -18.4692 89° East  Level FlightAware Approximate
04:00PM 58.0221 -18.1885 89° East  Level FlightAware Approximate
04:01PM 58.0232 -17.9077 89° East  Level FlightAware Approximate
04:02PM 58.0238 -17.6269 90° East  Level FlightAware Approximate
04:03PM 58.0236 -17.3461 90° East  Level FlightAware Approximate
04:04PM 58.0229 -17.0653 90° East  Level FlightAware Approximate
04:05PM 58.0216 -16.7845 90° East  Level FlightAware Approximate
04:05PM 58.0630 -12.0240 91° East 614 707 35,000  Level FlightAware
04:06PM 58.0196 -16.5038 91° East  Level FlightAware Approximate
04:06PM 58.0580 -11.7850 92° East 613 705 35,000  Level FlightAware
04:07PM 58.0520 -11.5630 93° East 613 705 35,000  Level FlightAware
04:07PM 58.0450 -11.3250 93° East 613 705 35,000  Level FlightAware
04:08PM 58.0390 -11.1210 93° East 613 705 35,000  Level FlightAware
04:09PM 58.0320 -10.8930 93° East 612 704 35,000  Level FlightAware
04:10PM 58.0240 -10.6520 93° East 611 703 35,000  Level FlightAware
04:10PM 58.0170 -10.4420 94° East 610 702 35,000  Level FlightAware
04:11PM 58.0080 -10.2050 94° East 610 702 35,000  Level FlightAware
04:12PM 58.0000 -9.9920 94° East 610 702 35,000  Level FlightAware
04:12PM 57.9910 -9.7840 95° East 610 702 35,000  Level FlightAware
04:13PM 57.9810 -9.5400 94° East 609 701 35,000  Level FlightAware
04:14PM 57.9720 -9.3280 94° East 609 701 35,000  Level FlightAware
04:14PM 57.9630 -9.1140 94° East 609 701 35,000 -1,380 Level FlightAware
04:15PM 57.9557 -8.9660 94° East 484 557 33,500  Descending FlightAware UK
04:15PM 57.9520 -8.8790 94° East 608 700 35,000  Climbing FlightAware
04:15PM 57.9467 -8.7771 94° East 486 559 33,500 -2,580 Descending FlightAware UK
04:16PM 57.9422 -8.6824 95° East 484 557 33,500 3,900 Level FlightAware UK
04:16PM 57.9420 -8.6720 95° East 608 700 35,000  Climbing FlightAware
04:16PM 57.9361 -8.5563 95° East 484 557 33,500 -2,460 Descending FlightAware UK
04:16PM 57.9314 -8.4617 95° East 484 557 33,500 3,420 Level FlightAware UK
04:17PM 57.9300 -8.4320 95° East 608 700 35,000  Climbing FlightAware
04:17PM 57.9246 -8.3354 95° East 486 559 33,500  Descending FlightAware UK
04:17PM 57.9190 -8.2250 95° East 608 700 35,000  Climbing FlightAware
04:18PM 57.9126 -8.1138 95° East 484 557 33,500  Descending FlightAware UK
04:18PM 57.9060 -7.9830 95° East 607 699 35,000  Climbing FlightAware
04:18PM 57.9010 -7.8935 95° East 486 559 33,500 -2,760 Descending FlightAware UK
04:19PM 57.8958 -7.7992 96° East 486 559 33,500 3,600 Level FlightAware UK
04:19PM 57.8950 -7.7790 96° East 608 700 35,000  Climbing FlightAware
04:19PM 57.8868 -7.6423 96° East 484 557 33,500  Descending FlightAware UK
04:19PM 57.8830 -7.5690 96° East 607 699 35,000  Climbing FlightAware
04:20PM 57.8759 -7.4532 96° East 488 562 33,500  Descending FlightAware UK
04:20PM 57.8690 -7.3380 96° East 607 699 35,000  Climbing FlightAware
04:20PM 57.8630 -7.2340 96° East 488 562 33,500 -2,700 Descending FlightAware UK
04:21PM 57.8570 -7.1401 97° East 486 559 33,500 3,720 Level FlightAware UK
04:21PM 57.8570 -7.1310 97° East 608 700 35,000  Climbing FlightAware
04:21PM 57.8492 -7.0149 97° East 486 559 33,500 -2,520 Descending FlightAware UK
04:21PM 57.8434 -6.9213 97° East 486 559 33,500 4,080 Level FlightAware UK
04:21PM 57.8430 -6.9190 97° East 605 696 35,000  Climbing FlightAware
04:22PM 57.8355 -6.7967 97° East 488 562 33,500 -2,400 Descending FlightAware UK
04:22PM 57.8294 -6.7034 97° East 486 559 33,500 3,600 Level FlightAware UK
04:22PM 57.8280 -6.6870 97° East 602 693 35,000  Climbing FlightAware
04:22PM 57.8215 -6.5792 97° East 486 559 33,500 -2,580 Descending FlightAware UK
04:23PM 57.8151 -6.4861 97° East 486 559 33,500 3,900 Level FlightAware UK
04:23PM 57.8140 -6.4760 97° East 603 694 35,000  Climbing FlightAware
04:23PM 57.8047 -6.3307 97° East 486 559 33,500  Descending FlightAware UK
04:24PM 57.7990 -6.2460 97° East 601 692 35,000  Climbing FlightAware
04:24PM 57.7919 -6.1437 97° East 484 557 33,500 -2,700 Descending FlightAware UK
04:24PM 57.7855 -6.0508 97° East 484 557 33,500 3,720 Level FlightAware UK
04:24PM 57.7850 -6.0430 97° East 604 695 35,000  Climbing FlightAware
04:25PM 57.7744 -5.8959 97° East 484 557 33,500  Descending FlightAware UK
04:25PM 57.7700 -5.8340 97° East 605 696 35,000  Climbing FlightAware
04:25PM 57.7609 -5.7097 97° East 486 559 33,500 -2,400 Descending FlightAware UK
04:26PM 57.7540 -5.6166 98° East 486 559 33,500 3,600 Level FlightAware UK
04:26PM 57.7530 -5.5980 98° East 602 693 35,000  Climbing FlightAware
04:26PM 57.7448 -5.4929 98° East 486 559 33,500  Descending FlightAware UK
04:26PM 57.7370 -5.3890 98° East 604 695 35,000  Climbing FlightAware
04:27PM 57.7284 -5.2767 98° East 484 557 33,500 -2,460 Descending FlightAware UK
04:27PM 57.7213 -5.1841 98° East 486 559 33,500 4,260 Level FlightAware UK
04:27PM 57.7210 -5.1850 98° East 602 693 35,000  Climbing FlightAware
04:27PM 57.7141 -5.0917 98° East 486 559 33,500 -2,760 Descending FlightAware UK
04:28PM 57.7069 -4.9994 98° East 484 557 33,500 3,000 Level FlightAware UK
04:28PM 57.7030 -4.9560 98° East 600 690 35,000 -240 Climbing FlightAware
04:28PM 57.6946 -4.8448 98° East 484 557 33,400 -2,700 Descending FlightAware UK
04:28PM 57.6874 -4.7526 98° East 488 562 33,400 4,320 Level FlightAware UK
04:28PM 57.6870 -4.7490 98° East 599 689 35,000  Climbing FlightAware
04:29PM 57.6772 -4.6300 98° East 488 562 33,400 -2,400 Descending FlightAware UK
04:29PM 57.6696 -4.5385 99° East 486 559 33,500 3,840 Climbing FlightAware UK
04:29PM 57.6680 -4.5210 99° East 595 685 35,000  Climbing FlightAware
04:29PM 57.6593 -4.4158 99° East 486 559 33,500 -2,520 Descending FlightAware UK
04:30PM 57.6517 -4.3246 99° East 484 557 33,500 4,080 Level FlightAware UK
04:30PM 57.6510 -4.3200 99° East 597 687 35,000  Climbing FlightAware
04:30PM 57.6414 -4.2027 99° East 482 555 33,500 -2,580 Descending FlightAware UK
04:30PM 57.6337 -4.1112 99° East 484 557 33,400 4,500 Descending FlightAware UK
04:30PM 57.6340 -4.1140 99° East 598 688 35,000  Climbing FlightAware
04:31PM 57.6256 -4.0197 99° East 484 557 33,400 -2,700 Descending FlightAware UK
04:31PM 57.6175 -3.9270 99° East 482 555 33,500 3,300 Climbing FlightAware UK
04:31PM 57.6140 -3.8880 99° East 600 690 35,000  Climbing FlightAware
04:32PM 57.6012 -3.7425 99° East 486 559 33,500  Descending FlightAware UK
04:32PM 57.5960 -3.6790 99° East 600 690 35,000  Climbing FlightAware
04:32PM 57.5876 -3.5908 99° East 484 557 33,500 -2,340 Descending FlightAware UK
04:33PM 57.5765 -3.4675 99° East 484 557 33,500 3,000 Level FlightAware UK
04:33PM 57.5750 -3.4530 99° East 599 689 35,000  Climbing FlightAware
04:33PM 57.5651 -3.3457 99° East 484 557 33,500 -2,520 Descending FlightAware UK
04:33PM 57.5565 -3.2546 100° East 484 557 33,500 3,300 Level FlightAware UK
04:33PM 57.5530 -3.2210 100° East 597 687 35,000  Climbing FlightAware
04:34PM 57.5451 -3.1333 100° East 482 555 33,500 -2,760 Descending FlightAware UK
04:34PM 57.5364 -3.0412 100° East 484 557 33,500 3,600 Level FlightAware UK
04:34PM 57.5350 -3.0220 100° East 597 687 35,000 -300 Climbing FlightAware
04:34PM 57.5248 -2.9188 100° East 486 559 33,400  Descending FlightAware UK
04:35PM 57.5150 -2.8170 100° East 597 687 35,000 120 Climbing FlightAware
04:35PM 57.5041 -2.7066 100° East 480 552 33,500 -2,460 Descending FlightAware UK
04:35PM 57.4951 -2.6158 100° East 480 552 33,500 4,260 Level FlightAware UK
04:35PM 57.4950 -2.6130 100° East 599 689 35,000 -360 Climbing FlightAware
04:36PM 57.4862 -2.5249 100° East 482 555 33,400 -2,400 Descending FlightAware UK
04:36PM 57.4739 -2.4023 100° East 484 557 33,400 3,180 Level FlightAware UK
04:36PM 57.4720 -2.3790 100° East 602 693 35,000 240 Climbing FlightAware
04:36PM 57.4618 -2.2814 100° East 482 555 33,500  Descending FlightAware UK
04:37PM 57.4490 -2.1540 100° East 602 693 35,000  Climbing FlightAware
04:37PM 57.4365 -2.0363 100° East 484 557 33,500  Descending FlightAware UK
04:38PM 57.4280 -1.9550 100° East 603 694 35,000  Climbing FlightAware
04:38PM 57.4174 -1.8542 100° East 484 557 33,500 -2,700 Descending FlightAware UK
04:38PM 57.4076 -1.7620 101° East 484 557 33,400 4,080 Descending FlightAware UK
04:38PM 57.4060 -1.7490 101° East 604 695 35,000 240 Climbing FlightAware
04:39PM 57.3949 -1.6404 101° East 482 555 33,500  Descending FlightAware UK
04:39PM 57.3850 -1.5490 101° East 603 694 35,000  Climbing FlightAware
04:39PM 57.3716 -1.4276 101° East 482 555 33,500 -2,280 Descending FlightAware UK
04:40PM 57.3617 -1.3370 101° East 482 555 33,500  Level FlightAware UK
04:40PM 57.3516 -1.2461 102° East 484 557 33,500  Level FlightAware UK
04:40PM 57.3348 -1.0931 101° East 482 555 33,500  Level FlightAware UK
04:41PM 57.3247 -1.0021 102° East 482 555 33,500 2,400 Level FlightAware UK
04:41PM 57.3180 -0.9410 102° East 603 694 35,000  Climbing FlightAware
04:41PM 57.3039 -0.8206 102° East 482 555 33,500 -2,520 Descending FlightAware UK
04:42PM 57.2933 -0.7278 102° East 484 557 33,500  Level FlightAware UK
04:42PM 57.2830 -0.6380 102° East 484 557 33,500  Level FlightAware UK
04:42PM 57.2724 -0.5473 102° East 482 555 33,500  Level FlightAware UK
04:42PM 57.2619 -0.4565 102° East 482 555 33,500  Level FlightAware UK
04:43PM 57.2513 -0.3657 102° East 484 557 33,500  Level FlightAware UK
04:43PM 57.2403 -0.2741 102° East 484 557 33,500  Level FlightAware UK
04:43PM 57.2294 -0.1835 102° East 486 559 33,500  Level FlightAware UK
04:44PM 57.2185 -0.0928 102° East 484 557 33,500  Level FlightAware UK
04:44PM 57.2076 -0.0024 102° East 484 557 33,500  Level FlightAware UK
04:44PM 57.1966 0.0870 103° East 484 557 33,500  Level FlightAware UK
04:45PM 57.1856 0.1783 103° East 484 557 33,500  Level FlightAware UK
04:45PM 57.1743 0.2694 103° East 484 557 33,500  Level FlightAware UK
04:45PM 57.1632 0.3584 103° East 484 557 33,500  Level FlightAware UK
04:45PM 57.1521 0.4483 103° East 482 555 33,500  Level FlightAware UK
04:46PM 57.1406 0.5402 103° East 482 555 33,500  Level FlightAware UK
04:46PM 57.1292 0.6301 103° East 484 557 33,500  Level FlightAware UK
04:46PM 57.1178 0.7199 103° East 486 559 33,500  Level FlightAware UK
04:47PM 57.1026 0.8396 103° East 484 557 33,500  Level FlightAware UK
04:47PM 57.0907 0.9302 104° East 484 557 33,500  Level FlightAware UK
04:47PM 57.0749 1.0505 104° East 482 555 33,500  Level FlightAware UK
04:48PM 57.0594 1.1696 103° East 482 555 33,500  Level FlightAware UK
04:48PM 57.0477 1.2578 104° East 482 555 33,500  Level FlightAware UK
04:48PM 57.0359 1.3479 104° East 482 555 33,500  Level FlightAware UK
04:49PM 57.0201 1.4666 104° East 482 555 33,500  Level FlightAware UK
04:49PM 57.0079 1.5565 104° East 482 555 33,500  Level FlightAware UK
04:49PM 56.9958 1.6455 104° East 482 555 33,500  Level FlightAware UK
04:50PM 56.9834 1.7355 104° East 484 557 33,500  Level FlightAware UK
04:50PM 56.9711 1.8254 104° East 484 557 33,500 4,260 Level FlightAware UK
04:50PM 56.9760 1.7900 104° East 603 694 35,000  Climbing FlightAware
04:50PM 56.9590 1.9133 104° East 482 555 33,500 -2,760 Descending FlightAware UK
04:51PM 56.9467 2.0031 104° East 482 555 33,500 3,000 Level FlightAware UK
04:51PM 56.9420 2.0340 104° East 603 694 35,000  Climbing FlightAware
04:51PM 56.9217 2.1805 104° East 482 555 33,500  Descending FlightAware UK
04:52PM 56.9180 2.2080 105° East 603 694 35,000  Climbing FlightAware
04:52PM 56.9091 2.2691 105° East 482 555 33,500 -4,500 Descending FlightAware UK
04:52PM 56.8965 2.3576 105° East 482 555 33,500  Level FlightAware UK
04:52PM 56.8839 2.4460 105° East 482 555 33,500 4,500 Level FlightAware UK
04:52PM 56.8880 2.4170 105° East 600 690 35,000  Climbing FlightAware
04:52PM 56.8710 2.5354 105° East 484 557 33,500 -2,700 Descending FlightAware UK
04:53PM 56.8586 2.6239 104° East 486 559 33,500 4,680 Level FlightAware UK
04:53PM 56.8670 2.5820 104° East 600 690 35,000  Climbing FlightAware
04:53PM 56.8457 2.7119 104° East 482 555 33,500 -2,580 Descending FlightAware UK
04:53PM 56.8327 2.7997 105° East 484 557 33,500  Level FlightAware UK
04:54PM 56.8300 2.8190 105° East 35,000  Climbing FlightAware
04:54PM 56.8198 2.8871 105° East 484 557 33,500 -4,320 Descending FlightAware UK
04:54PM 56.8111 2.9462 105° East 482 555 33,500  Level FlightAware UK
04:54PM 56.7982 3.0332 105° East 482 555 33,500  Level FlightAware UK
04:54PM 56.7853 3.1201 105° East 480 552 33,500  Level FlightAware UK
04:55PM 56.7726 3.2071 105° East 480 552 33,500  Level FlightAware UK
04:55PM 56.7597 3.2931 105° East 482 555 33,500  Level FlightAware UK
04:55PM 56.7469 3.3812 105° East 482 555 33,500  Level FlightAware UK
04:56PM 56.7370 3.4689 102° East 480 552 33,500 3,060 Level FlightAware UK
04:56PM 56.7340 3.4950 102° East 593 682 35,000  Climbing FlightAware
04:56PM 56.7267 3.5564 102° East 480 552 33,500 -4,740 Descending FlightAware UK
04:56PM 56.7200 3.6149 102° East 480 552 33,500  Level FlightAware UK
04:56PM 56.7105 3.7027 101° East 480 552 33,500  Level FlightAware UK
04:57PM 56.7013 3.7907 101° East 480 552 33,500  Level FlightAware UK
04:57PM 56.6887 3.9080 101° East 480 552 33,500  Level FlightAware UK
04:57PM 56.6789 3.9959 101° East 1 1 33,500  Level FlightAware UK
04:58PM 56.6688 4.0837 102° East 1 1 33,500  Level FlightAware UK
04:58PM 56.6586 4.1714 102° East 482 555 33,500  Level FlightAware UK
04:58PM 56.6484 4.2601 102° East 482 555 33,500  Level FlightAware UK
04:59PM 56.6380 4.3480 102° East 482 555 33,500 4,680 Level FlightAware UK
04:59PM 56.6400 4.3330 102° East 595 685 35,000  Climbing FlightAware
04:59PM 56.6279 4.4358 102° East 482 555 33,500 -2,580 Descending FlightAware UK
04:59PM 56.6174 4.5233 102° East 1 1 33,500 2,700 Level FlightAware UK
05:00PM 56.6160 4.5360 102° East 594 684 35,000  Climbing FlightAware
05:00PM 56.5998 4.6693 102° East 1 1 33,500  Descending FlightAware UK
05:05PM 56.4210 6.0870 102° East 593 682 35,000 240 Climbing FlightAware
05:05PM 56.3980 6.2530 104° East 594 684 35,000  Level FlightAware
05:08PM 56.2808 6.8088 111° Southeast  Level Estimated
05:09PM 56.2271 7.0585 111° Southeast  Level Estimated
05:10PM 56.1729 7.3074 111° Southeast  Level Estimated
05:10PM 56.1900 7.7370 111° Southeast 592 681 35,000  Level FlightAware
05:11PM 56.1182 7.5556 111° Southeast  Level Estimated
05:11PM 56.1620 7.9270 105° East 589 678 35,000  Level FlightAware
05:12PM 56.1330 8.1160 105° East 588 677 35,000  Level FlightAware
05:13PM 56.1010 8.3290 105° East 587 676 35,000  Level FlightAware
05:13PM 56.0720 8.5140 106° East 586 674 35,000  Level FlightAware
05:14PM 56.0400 8.7200 105° East 586 674 35,000  Level FlightAware
05:15PM 56.0110 8.9070 105° East 587 676 35,000  Level FlightAware
05:15PM 55.9810 9.0950 106° East 588 677 35,000  Level FlightAware
05:16PM 55.9470 9.3070 106° East 587 676 35,000  Level FlightAware
05:17PM 55.9170 9.4930 106° East 586 674 35,000  Level FlightAware
05:17PM 55.8840 9.6920 106° East 586 674 35,000  Level FlightAware
05:18PM 55.8530 9.8770 107° East 584 672 35,000  Level FlightAware
05:19PM 55.8220 10.0610 107° East 583 671 35,000  Level FlightAware
05:19PM 55.7940 10.2240 107° East 582 670 35,000  Level FlightAware
05:20PM 55.7550 10.4510 107° East 578 665 35,000  Level FlightAware
05:21PM 55.7210 10.6500 107° East 577 664 35,000  Level FlightAware
05:22PM 55.6890 10.8300 107° East 575 662 35,000  Level FlightAware
05:22PM 55.6570 11.0100 107° East 571 657 35,000  Level FlightAware
05:23PM 55.6210 11.2090 108° East 564 649 35,000  Level FlightAware
05:24PM 55.5890 11.3860 108° East 560 644 35,000  Level FlightAware
05:24PM 55.5540 11.5770 108° East 556 640 35,000  Level FlightAware
05:25PM 55.5210 11.7550 108° East 554 638 35,000  Level FlightAware
05:26PM 55.4900 11.9240 108° East 548 631 35,000  Level FlightAware
05:28PM 55.3786 12.3288 116° Southeast  Level Estimated
05:29PM 55.3131 12.5636 116° Southeast  Level Estimated
05:29PM 55.3140 12.8380 116° Southeast 539 620 35,000  Level FlightAware
05:30PM 55.2471 12.7976 116° Southeast  Level Estimated
05:30PM 55.2820 13.0020 109° East 539 620 35,000  Level FlightAware
05:31PM 55.2230 13.2980 109° East 540 621 35,000  Level FlightAware
05:32PM 55.1900 13.4630 109° East 538 619 35,000  Level FlightAware
05:33PM 55.1550 13.6170 112° Southeast 540 621 35,000  Level FlightAware
05:33PM 55.1090 13.7700 118° Southeast 539 620 35,000  Level FlightAware
05:34PM 55.0490 13.9410 121° Southeast 535 616 35,000  Level FlightAware
05:35PM 54.9960 14.0870 122° Southeast 534 615 35,000  Level FlightAware
05:35PM 54.9450 14.2300 122° Southeast 532 612 35,000  Level FlightAware
05:36PM 54.8860 14.3960 122° Southeast 531 611 35,000  Level FlightAware
05:37PM 54.8340 14.5390 122° Southeast 527 606 35,000  Level FlightAware
05:38PM 54.7760 14.6970 122° Southeast 526 605 35,000  Level FlightAware
05:38PM 54.7240 14.8390 122° Southeast 523 602 35,000  Level FlightAware
05:39PM 54.6670 14.9940 122° Southeast 520 598 35,000  Level FlightAware
05:40PM 54.6150 15.1340 123° Southeast 519 597 35,000  Level FlightAware
05:40PM 54.5630 15.2740 123° Southeast 516 594 35,000  Level FlightAware
05:41PM 54.5050 15.4270 123° Southeast 517 595 35,000  Level FlightAware
05:42PM 54.4530 15.5650 123° Southeast 516 594 35,000  Level FlightAware
05:42PM 54.3930 15.7220 123° Southeast 513 590 35,000  Level FlightAware
05:45PM 54.2451 16.1790 119° Southeast  Level Estimated
05:45PM 54.1950 16.2360 119° Southeast 504 580 35,000  Level FlightAware
05:46PM 54.1370 16.3860 123° Southeast 504 580 35,000  Level FlightAware
05:46PM 54.0850 16.5190 124° Southeast 504 580 35,000  Level FlightAware
05:47PM 54.0280 16.6620 124° Southeast 505 581 35,000  Level FlightAware
05:48PM 53.9750 16.7950 124° Southeast 504 580 35,000  Level FlightAware
05:49PM 53.9240 16.9240 124° Southeast 506 582 35,000  Level FlightAware
05:49PM 53.8620 17.0780 124° Southeast 507 583 35,000  Level FlightAware
05:50PM 53.8100 17.2060 124° Southeast 506 582 35,000  Level FlightAware
05:51PM 53.7570 17.3370 124° Southeast 505 581 35,000  Level FlightAware
05:51PM 53.6970 17.4850 124° Southeast 504 580 35,000  Level FlightAware
05:52PM 53.6460 17.6080 125° Southeast 501 577 35,000  Level FlightAware
05:53PM 53.5860 17.7540 125° Southeast 499 574 35,000  Level FlightAware
05:53PM 53.5320 17.8840 125° Southeast 499 574 35,000  Level FlightAware
05:54PM 53.4750 18.0210 125° Southeast 498 573 35,000  Level FlightAware
05:55PM 53.4220 18.1470 125° Southeast 498 573 35,000  Level FlightAware
05:56PM 53.3700 18.2710 125° Southeast 497 572 35,000  Level FlightAware
05:56PM 53.3080 18.4160 126° Southeast 496 571 35,000  Level FlightAware
05:57PM 53.2550 18.5420 125° Southeast 497 572 35,000  Level FlightAware
05:58PM 53.1970 18.6780 125° Southeast 498 573 35,000  Level FlightAware
05:58PM 53.1430 18.8020 126° Southeast 497 572 35,000  Level FlightAware
05:59PM 53.0900 18.9250 126° Southeast 495 570 35,000  Level FlightAware
06:00PM 53.0420 19.0350 126° Southeast 495 570 35,000  Level FlightAware
06:00PM 52.9760 19.1880 126° Southeast 494 568 35,000  Level FlightAware
06:01PM 52.9150 19.3270 126° Southeast 491 565 35,000  Level FlightAware
06:04PM 52.7353 19.8086 122° Southeast  Level Estimated
06:04PM 52.6830 19.8370 122° Southeast 491 565 35,000  Level FlightAware
06:05PM 52.6120 19.9540 135° Southeast 488 562 35,000  Level FlightAware
06:06PM 52.5400 20.0680 136° Southeast 488 562 35,000  Level FlightAware
06:08PM 52.3844 20.4744 122° Southeast  Level Estimated
06:09PM 52.3047 20.6799 122° Southeast  Level Estimated
06:10PM 52.2247 20.8847 122° Southeast  Level Estimated
06:10PM 52.1340 20.7010 122° Southeast 485 558 35,000  Level FlightAware
06:10PM 52.0690 20.8020 136° Southeast 485 558 35,000  Level FlightAware
06:11PM 51.9930 20.9180 137° Southeast 484 557 35,000  Level FlightAware
06:12PM 51.9290 21.0160 137° Southeast 483 556 35,000 720 Level FlightAware
06:13PM 51.8570 21.1250 137° Southeast 482 555 36,100 1,200 Climbing FlightAware
06:13PM 51.7920 21.2240 137° Southeast 488 562 36,700 660 Climbing FlightAware
06:14PM 51.7250 21.3240 137° Southeast 486 559 37,000 180 Climbing FlightAware
06:15PM 51.6520 21.4430 135° Southeast 486 559 37,000  Level FlightAware
06:15PM 51.6010 21.5550 126° Southeast 487 560 37,000  Level FlightAware
06:16PM 51.5510 21.6740 124° Southeast 487 560 37,000  Level FlightAware
06:17PM 51.4920 21.8120 124° Southeast 487 560 37,000  Level FlightAware
06:17PM 51.4410 21.9280 125° Southeast 487 560 37,000  Level FlightAware
06:18PM 51.3800 22.0530 128° Southeast 485 558 37,000  Level FlightAware
06:19PM 51.3220 22.1630 130° Southeast 484 557 37,000  Level FlightAware
06:20PM 51.2550 22.2880 131° Southeast 485 558 37,000  Level FlightAware
06:20PM 51.1960 22.3970 131° Southeast 484 557 37,000  Level FlightAware
06:21PM 51.1380 22.5050 131° Southeast 485 558 37,000  Level FlightAware
06:22PM 51.0740 22.6220 131° Southeast 484 557 37,000  Level FlightAware
06:22PM 51.0160 22.7290 131° Southeast 483 556 37,000  Level FlightAware
06:23PM 50.9490 22.8520 131° Southeast 482 555 37,000  Level FlightAware
06:24PM 50.8900 22.9590 131° Southeast 482 555 37,000  Level FlightAware
06:24PM 50.8350 23.0570 132° Southeast 481 554 37,000  Level FlightAware
06:27PM 50.6579 23.4730 124° Southeast  Level Estimated
06:28PM 50.5744 23.6669 124° Southeast  Level Estimated
06:28PM 50.5050 23.6470 124° Southeast 477 549 37,000  Level FlightAware
06:29PM 50.4440 23.7550 132° Southeast 476 548 37,000  Level FlightAware
06:29PM 50.3850 23.8590 132° Southeast 476 548 37,000  Level FlightAware
06:30PM 50.3290 23.9470 135° Southeast 478 550 37,000  Level FlightAware
06:31PM 50.2540 24.0640 135° Southeast 477 549 37,000  Level FlightAware
06:32PM 50.1920 24.1620 135° Southeast 476 548 37,000  Level FlightAware
06:32PM 50.1240 24.2690 135° Southeast 477 549 37,000  Level FlightAware
06:35PM 49.9341 24.6884 125° Southeast  Level FlightAware Approximate
06:36PM 49.8479 24.8765 125° Southeast  Level FlightAware Approximate
06:37PM 49.7614 25.0639 125° Southeast  Level FlightAware Approximate
06:37PM 49.6620 24.9860 125° Southeast 478 550 37,000  Level FlightAware
06:38PM 49.6080 25.0670 136° Southeast 479 551 37,000  Level FlightAware
06:39PM 49.5360 25.1760 135° Southeast 481 554 37,000  Level FlightAware
06:39PM 49.4700 25.2750 136° Southeast 483 556 37,000  Level FlightAware
06:42PM 49.2874 25.6965 123° Southeast  Level FlightAware Approximate
06:42PM 49.1850 25.7000 123° Southeast 490 564 37,000  Level FlightAware
06:43PM 49.1250 25.7880 136° Southeast 489 563 37,000  Level FlightAware
06:44PM 49.0510 25.8960 136° Southeast 488 562 37,000  Level FlightAware
06:44PM 48.9860 25.9920 136° Southeast 488 562 37,000  Level FlightAware
06:45PM 48.9310 26.0720 136° Southeast 488 562 37,000  Level FlightAware
06:46PM 48.8510 26.1880 136° Southeast 487 560 37,000  Level FlightAware
06:47PM 48.7660 26.3120 136° Southeast 487 560 37,000  Level FlightAware
06:47PM 48.6930 26.4160 137° Southeast 488 562 37,000  Level FlightAware
06:48PM 48.6350 26.5000 136° Southeast 489 563 37,000  Level FlightAware
06:49PM 48.5380 26.6390 136° Southeast 489 563 37,000  Level FlightAware
06:50PM 48.4550 26.7550 137° Southeast 489 563 37,000  Level FlightAware
06:50PM 48.3910 26.8460 137° Southeast 490 564 37,000  Level FlightAware
06:51PM 48.3070 26.9710 135° Southeast 489 563 37,000  Level FlightAware
06:52PM 48.2260 27.0880 136° Southeast 490 564 37,000  Level FlightAware
06:53PM 48.1670 27.1730 136° Southeast 492 566 37,000  Level FlightAware
06:53PM 48.1100 27.2560 136° Southeast 492 566 37,000  Level FlightAware
06:54PM 48.0540 27.3370 136° Southeast 492 566 37,000  Level FlightAware
06:55PM 47.9360 27.5050 136° Southeast 493 567 37,000  Level FlightAware
06:56PM 47.8810 27.5830 136° Southeast 493 567 37,000  Level FlightAware
06:56PM 47.7960 27.7030 136° Southeast 493 567 37,000  Level FlightAware
06:57PM 47.7060 27.8300 136° Southeast 493 567 37,000  Level FlightAware
06:58PM 47.6350 27.9300 136° Southeast 493 567 37,000  Level FlightAware
06:59PM 47.5760 28.0130 136° Southeast 494 568 37,000  Level FlightAware
06:59PM 47.5120 28.1010 137° Southeast 495 570 37,000  Level FlightAware
07:00PM 47.4240 28.2240 137° Southeast 496 571 37,000  Level FlightAware
07:01PM 47.3530 28.3220 137° Southeast 496 571 37,000  Level FlightAware
07:01PM 47.2970 28.4000 137° Southeast 497 572 37,000  Level FlightAware
07:02PM 47.2150 28.5130 137° Southeast 496 571 37,000  Level FlightAware
07:03PM 47.1460 28.6070 137° Southeast 496 571 37,000  Level FlightAware
07:04PM 47.0770 28.7000 137° Southeast 495 570 37,000  Level FlightAware
07:04PM 47.0020 28.8010 137° Southeast 496 571 37,000  Level FlightAware
07:05PM 46.9360 28.8900 137° Southeast 496 571 37,000  Level FlightAware
07:06PM 46.8630 28.9930 136° Southeast 496 571 37,000  Level FlightAware
07:06PM 46.7950 29.0910 135° Southeast 497 572 37,000  Level FlightAware
07:07PM 46.7280 29.1850 136° Southeast 497 572 37,000  Level FlightAware
07:08PM 46.6570 29.2850 136° Southeast 497 572 37,000  Level FlightAware
07:09PM 46.5870 29.3820 136° Southeast 497 572 37,000  Level FlightAware
07:09PM 46.5130 29.4850 136° Southeast 496 571 37,000  Level FlightAware
07:10PM 46.4520 29.5690 136° Southeast 496 571 37,000  Level FlightAware
07:11PM 46.3690 29.6840 136° Southeast 496 571 37,000  Level FlightAware
07:11PM 46.3020 29.7740 137° Southeast 497 572 37,000  Level FlightAware
07:12PM 46.2330 29.8640 138° Southeast 497 572 37,000  Level FlightAware
07:13PM 46.1560 29.9640 138° Southeast 497 572 37,000  Level FlightAware
07:13PM 46.0890 30.0520 138° Southeast 498 573 37,000  Level FlightAware
07:14PM 46.0200 30.1410 138° Southeast 498 573 37,000  Level FlightAware
07:15PM 45.9410 30.2440 138° Southeast 498 573 37,000  Level FlightAware
07:16PM 45.8730 30.3320 138° Southeast 497 572 37,000  Level FlightAware
07:16PM 45.7970 30.4300 138° Southeast 499 574 37,000  Level FlightAware
07:17PM 45.7270 30.5190 138° Southeast 499 574 37,000  Level FlightAware
07:18PM 45.6580 30.6070 138° Southeast 498 573 37,000  Level FlightAware
07:18PM 45.5830 30.7030 138° Southeast 500 575 37,000  Level FlightAware
07:19PM 45.5120 30.7930 138° Southeast 500 575 37,000  Level FlightAware
07:20PM 45.4340 30.8910 139° Southeast 500 575 37,000  Level FlightAware
07:20PM 45.3650 30.9780 138° Southeast 500 575 37,000  Level FlightAware
07:21PM 45.2960 31.0650 138° Southeast 500 575 37,000  Level FlightAware
07:22PM 45.2200 31.1610 138° Southeast 500 575 37,000  Level FlightAware
07:23PM 45.1510 31.2500 138° Southeast 501 577 37,000  Level FlightAware
07:23PM 45.0720 31.3510 138° Southeast 501 577 37,000  Level FlightAware
07:24PM 45.0040 31.4390 138° Southeast 501 577 37,000  Level FlightAware
07:25PM 44.9360 31.5250 138° Southeast 502 578 37,000  Level FlightAware
07:25PM 44.8580 31.6240 138° Southeast 501 577 37,000  Level FlightAware
07:26PM 44.7900 31.7110 138° Southeast 501 577 37,000  Level FlightAware
07:27PM 44.7120 31.8080 139° Southeast 502 578 37,000  Level FlightAware
07:27PM 44.6410 31.8970 138° Southeast 502 578 37,000  Level FlightAware
07:28PM 44.5640 31.9940 138° Southeast 500 575 37,000  Level FlightAware
07:29PM 44.4970 32.0760 139° Southeast 500 575 37,000  Level FlightAware
07:30PM 44.4230 32.1630 140° Southeast 501 577 37,000  Level FlightAware
07:30PM 44.3440 32.2570 140° Southeast 503 579 37,000  Level FlightAware
07:31PM 44.2730 32.3410 140° Southeast 503 579 37,000  Level FlightAware
07:32PM 44.1930 32.4340 140° Southeast 504 580 37,000  Level FlightAware
07:32PM 44.1220 32.5190 139° Southeast 504 580 37,000  Level FlightAware
07:33PM 44.0540 32.6020 139° Southeast 506 582 37,000  Level FlightAware
07:34PM 43.9760 32.6950 139° Southeast 506 582 37,000  Level FlightAware
07:34PM 43.9010 32.7850 139° Southeast 508 585 37,000  Level FlightAware
07:35PM 43.8210 32.8800 139° Southeast 508 585 37,000  Level FlightAware
07:36PM 43.7500 32.9660 139° Southeast 507 583 37,000  Level FlightAware
07:37PM 43.6830 33.0450 140° Southeast 507 583 37,000  Level FlightAware
07:37PM 43.5990 33.1440 140° Southeast 510 587 37,000  Level FlightAware
07:38PM 43.5290 33.2260 140° Southeast 512 589 37,000  Level FlightAware
07:39PM 43.4470 33.3210 140° Southeast 514 592 37,000  Level FlightAware
07:39PM 43.3730 33.4070 140° Southeast 516 594 37,000  Level FlightAware
07:40PM 43.3000 33.4920 140° Southeast 515 593 37,000  Level FlightAware
07:41PM 43.2180 33.5870 140° Southeast 516 594 37,000  Level FlightAware
07:41PM 43.1480 33.6680 140° Southeast 515 593 37,000  Level FlightAware
07:42PM 43.0730 33.7550 140° Southeast 516 594 37,000  Level FlightAware
07:43PM 42.9920 33.8470 140° Southeast 516 594 37,000  Level FlightAware
07:44PM 42.9170 33.9330 140° Southeast 515 593 37,000  Level FlightAware
07:44PM 42.8390 34.0210 140° Southeast 513 590 37,000  Level FlightAware
07:45PM 42.7660 34.1080 139° Southeast 514 592 37,000  Level FlightAware
07:46PM 42.6950 34.2000 136° Southeast 514 592 37,000  Level FlightAware
07:46PM 42.6380 34.2770 135° Southeast 515 593 37,000  Level FlightAware
07:47PM 42.5580 34.3840 135° Southeast 514 592 37,000  Level FlightAware
07:48PM 42.5000 34.4620 135° Southeast 514 592 37,000  Level FlightAware
07:48PM 42.4430 34.5390 135° Southeast 514 592 37,000  Level FlightAware
07:49PM 42.3860 34.6170 135° Southeast 514 592 37,000  Level FlightAware
07:50PM 42.3150 34.7130 135° Southeast 514 592 37,000  Level FlightAware
07:51PM 42.2570 34.7910 135° Southeast 514 592 37,000  Level FlightAware
07:51PM 42.2000 34.8680 135° Southeast 514 592 37,000  Level FlightAware
07:52PM 42.0040 35.0250 149° Southeast 515 593 37,000  Level FlightAware
07:53PM 41.9360 35.0850 147° Southeast 515 593 37,000  Level FlightAware
07:53PM 41.8680 35.1440 147° Southeast 515 593 37,000  Level FlightAware
07:54PM 41.7830 35.2180 147° Southeast 515 593 37,000  Level FlightAware
07:55PM 41.7160 35.2770 147° Southeast 515 593 37,000  Level FlightAware
07:56PM 41.6480 35.3360 147° Southeast 515 593 37,000  Level FlightAware
07:56PM 41.5800 35.3950 147° Southeast 515 593 37,000  Level FlightAware
07:57PM 41.5120 35.4540 147° Southeast 515 593 37,000  Level FlightAware
07:58PM 41.4270 35.5280 147° Southeast 515 593 37,000  Level FlightAware
07:58PM 41.3590 35.5860 147° Southeast 515 593 37,000  Level FlightAware
07:59PM 41.2910 35.6450 147° Southeast 515 593 37,000  Level FlightAware
08:00PM 41.2230 35.7040 147° Southeast 515 593 37,000  Level FlightAware
08:01PM 41.1380 35.7770 147° Southeast 515 593 37,000  Level FlightAware
08:01PM 41.0700 35.8360 147° Southeast 515 593 37,000  Level FlightAware
08:04PM 40.8654 36.1783 128° Southeast  Level Estimated
08:05PM 40.7728 36.3320 128° Southeast  Level Estimated
08:06PM 40.6800 36.4853 129° Southeast  Level Estimated
08:07PM 40.5869 36.6382 129° Southeast  Level Estimated
08:08PM 40.4937 36.7906 129° Southeast  Level Estimated
08:09PM 40.4003 36.9426 129° Southeast  Level Estimated
08:10PM 40.3066 37.0942 129° Southeast  Level Estimated
08:11PM 40.2128 37.2454 129° Southeast  Level Estimated
08:12PM 40.1188 37.3962 129° Southeast  Level Estimated
08:13PM 40.0246 37.5465 129° Southeast  Level Estimated
08:14PM 39.9301 37.6964 129° Southeast  Level Estimated
08:15PM 39.8355 37.8459 129° Southeast  Level Estimated
08:16PM 39.7407 37.9950 130° Southeast  Level Estimated
08:17PM 39.6458 38.1437 130° Southeast  Level Estimated
08:18PM 39.5506 38.2920 130° Southeast  Level Estimated
08:19PM 39.4552 38.4399 130° Southeast  Level Estimated
08:20PM 39.3597 38.5873 130° Southeast  Level Estimated
08:21PM 39.2639 38.7344 130° Southeast  Level Estimated
08:22PM 39.1680 38.8811 130° Southeast  Level Estimated
08:23PM 39.0719 39.0273 130° Southeast  Level Estimated
08:24PM 38.9756 39.1732 130° Southeast  Level Estimated
08:25PM 38.8792 39.3187 130° Southeast  Level Estimated
08:26PM 38.7825 39.4637 130° Southeast  Level Estimated
08:27PM 38.6857 39.6084 131° Southeast  Level Estimated
08:28PM 38.5887 39.7527 131° Southeast  Level Estimated
08:29PM 38.4915 39.8966 131° Southeast  Level Estimated
08:30PM 38.3941 40.0401 131° Southeast  Level Estimated
08:31PM 38.2966 40.1833 131° Southeast  Level Estimated
08:32PM 38.1989 40.3260 131° Southeast  Level Estimated
08:33PM 38.1010 40.4684 131° Southeast  Level Estimated
08:34PM 38.0030 40.6103 131° Southeast  Level Estimated
08:35PM 37.9048 40.7519 131° Southeast  Level Estimated
08:36PM 37.8064 40.8932 131° Southeast  Level Estimated
08:37PM 37.7078 41.0340 131° Southeast  Level Estimated
08:38PM 37.6091 41.1745 132° Southeast  Level Estimated
08:39PM 37.5102 41.3146 132° Southeast  Level Estimated
08:40PM 37.4112 41.4543 132° Southeast  Level Estimated
08:41PM 37.3119 41.5937 132° Southeast  Level Estimated
08:42PM 37.2126 41.7327 132° Southeast  Level Estimated
08:43PM 37.1130 41.8713 132° Southeast  Level Estimated
08:44PM 37.0133 42.0095 132° Southeast  Level Estimated
08:45PM 36.9134 42.1474 132° Southeast  Level Estimated
08:46PM 36.8134 42.2850 132° Southeast  Level Estimated
08:47PM 36.7132 42.4221 132° Southeast  Level Estimated
08:48PM 36.6129 42.5590 132° Southeast  Level Estimated
08:49PM 36.5124 42.6954 132° Southeast  Level Estimated
08:50PM 36.4118 42.8315 133° Southeast  Level Estimated
08:51PM 36.3110 42.9673 133° Southeast  Level Estimated
08:52PM 36.2100 43.1027 133° Southeast  Level Estimated
08:53PM 36.1089 43.2378 133° Southeast  Level Estimated
08:54PM 36.0076 43.3725 133° Southeast  Level Estimated
08:55PM 35.9062 43.5068 133° Southeast  Level Estimated
08:56PM 35.8047 43.6409 133° Southeast  Level Estimated
08:57PM 35.7030 43.7745 133° Southeast  Level Estimated
08:58PM 35.6011 43.9079 133° Southeast  Level Estimated
08:59PM 35.4991 44.0409 133° Southeast  Level Estimated
09:00PM 35.3970 44.1735 133° Southeast  Level Estimated
09:01PM 35.2947 44.3059 133° Southeast  Level Estimated
09:02PM 35.1922 44.4379 134° Southeast  Level Estimated
09:03PM 35.0897 44.5695 134° Southeast  Level Estimated
09:04PM 34.9869 44.7008 134° Southeast  Level Estimated
09:04PM 34.6370 43.8080 134° Southeast 534 615 37,000  Level FlightAware
09:04PM 34.5500 43.8950 141° Southeast 536 617 37,000  Level FlightAware
09:05PM 34.4870 43.9590 140° Southeast 534 615 37,000  Level FlightAware
09:06PM 34.4030 44.0430 140° Southeast 533 613 37,000  Level FlightAware
09:06PM 34.3140 44.1320 140° Southeast 533 613 37,000  Level FlightAware
09:07PM 34.2380 44.2080 140° Southeast 534 615 37,000  Level FlightAware
09:08PM 34.1490 44.2960 141° Southeast 534 615 37,000  Level FlightAware
09:09PM 34.0720 44.3720 141° Southeast 537 618 37,000  Level FlightAware
09:09PM 33.9980 44.4450 141° Southeast 539 620 37,000  Level FlightAware
09:10PM 33.9080 44.5340 141° Southeast 540 621 37,000  Level FlightAware
09:11PM 33.8310 44.6100 141° Southeast 540 621 37,000  Level FlightAware
09:11PM 33.7460 44.6940 141° Southeast 537 618 37,000  Level FlightAware
09:12PM 33.6670 44.7710 141° Southeast 534 615 37,000  Level FlightAware
09:13PM 33.5900 44.8460 141° Southeast 535 616 37,000  Level FlightAware
09:13PM 33.5050 44.9290 141° Southeast 537 618 37,000  Level FlightAware
09:14PM 33.4270 45.0050 141° Southeast 536 617 37,000  Level FlightAware
09:15PM 33.3500 45.0790 141° Southeast 538 619 37,000  Level FlightAware
09:16PM 33.2610 45.1650 141° Southeast 541 623 37,000  Level FlightAware
09:16PM 33.1860 45.2370 141° Southeast 544 626 37,000  Level FlightAware
09:17PM 33.0960 45.3240 141° Southeast 548 631 37,000  Level FlightAware
09:18PM 33.0170 45.4000 141° Southeast 549 632 37,000  Level FlightAware
09:18PM 32.9330 45.4800 141° Southeast 551 634 37,000  Level FlightAware
09:19PM 32.8580 45.5520 141° Southeast 549 632 37,000  Level FlightAware
09:20PM 32.7480 45.6570 141° Southeast 550 633 37,000  Level FlightAware
09:21PM 32.6810 45.7220 141° Southeast 550 633 37,000  Level FlightAware
09:21PM 32.6130 45.7870 141° Southeast 550 633 37,000  Level FlightAware
09:22PM 32.5460 45.8510 141° Southeast 550 633 37,000  Level FlightAware
09:23PM 32.4620 45.9320 141° Southeast 550 633 37,000  Level FlightAware
09:23PM 32.3950 45.9970 141° Southeast 550 633 37,000  Level FlightAware
09:24PM 32.3280 46.0610 141° Southeast 550 633 37,000  Level FlightAware
09:25PM 32.1420 46.2290 143° Southeast 544 626 37,000  Level FlightAware
09:26PM 32.0750 46.2920 141° Southeast 544 626 37,000  Level FlightAware
09:27PM 31.9920 46.3720 141° Southeast 544 626 37,000  Level FlightAware
09:27PM 31.9260 46.4350 141° Southeast 544 626 37,000  Level FlightAware
09:28PM 31.8590 46.4990 141° Southeast 544 626 37,000  Level FlightAware
09:29PM 31.7930 46.5620 141° Southeast 544 626 37,000  Level FlightAware
09:29PM 31.7260 46.6250 141° Southeast 544 626 37,000  Level FlightAware
09:30PM 31.6430 46.7040 141° Southeast 544 626 37,000  Level FlightAware
09:31PM 31.5770 46.7680 140° Southeast 544 626 37,000  Level FlightAware
09:31PM 31.5100 46.8310 141° Southeast 544 626 37,000  Level FlightAware
09:32PM 31.4440 46.8940 141° Southeast 544 626 37,000  Level FlightAware
09:33PM 31.3770 46.9570 141° Southeast 544 626 37,000  Level FlightAware
09:34PM 31.2940 47.0360 141° Southeast 544 626 37,000  Level FlightAware
09:34PM 31.2270 47.0990 141° Southeast 544 626 37,000  Level FlightAware
09:35PM 31.0050 47.3260 139° Southeast 37,000  Level FlightAware
09:36PM 30.8920 47.4450 138° Southeast 548 631 37,000  Level FlightAware
09:37PM 30.7930 47.5480 138° Southeast 549 632 37,000  Level FlightAware
09:37PM 30.7220 47.6230 138° Southeast 548 631 37,000  Level FlightAware
09:38PM 30.6390 47.7100 138° Southeast 547 629 37,000  Level FlightAware
09:39PM 30.5760 47.7740 139° Southeast 548 631 37,000  Level FlightAware
09:39PM 30.5120 47.8410 138° Southeast 548 631 37,000  Level FlightAware
09:40PM 30.3990 47.9580 138° Southeast 552 635 37,000  Level FlightAware
09:41PM 30.3050 48.0560 138° Southeast 552 635 37,000  Level FlightAware
09:42PM 30.2260 48.1370 138° Southeast 553 636 37,000  Level FlightAware
09:43PM 30.1620 48.2040 138° Southeast 553 636 37,000  Level FlightAware
09:43PM 30.0970 48.2710 138° Southeast 553 636 37,000  Level FlightAware
09:44PM 29.9530 48.3590 152° Southeast 541 623 37,000  Level FlightAware
09:45PM 29.8920 48.4100 144° Southeast 542 624 37,000  Level FlightAware
09:46PM 29.7610 48.5180 144° Southeast 541 623 37,000  Level FlightAware
09:46PM 29.6770 48.5870 144° Southeast 541 623 37,000  Level FlightAware
09:47PM 29.5840 48.6640 144° Southeast 542 624 37,000  Level FlightAware
09:48PM 29.5010 48.7330 144° Southeast 540 621 37,000  Level FlightAware
09:49PM 29.3620 48.8470 144° Southeast 542 624 37,000  Level FlightAware
09:50PM 29.2770 48.9160 145° Southeast 545 627 37,000  Level FlightAware
09:50PM 29.1820 48.9940 144° Southeast 545 627 37,000  Level FlightAware
09:51PM 29.0680 49.0850 145° Southeast 539 620 37,000  Level FlightAware
09:52PM 29.0080 49.1340 144° Southeast 538 619 37,000  Level FlightAware
09:53PM 28.9250 49.2030 144° Southeast 538 619 37,000  Level FlightAware
09:54PM 28.7880 49.3100 146° Southeast 538 619 37,000  Level FlightAware
09:55PM 28.6810 49.3980 144° Southeast 538 619 37,000  Level FlightAware
09:55PM 28.6130 49.4550 144° Southeast 538 619 37,000  Level FlightAware
09:56PM 28.5440 49.5110 145° Southeast 538 619 37,000  Level FlightAware
09:57PM 28.4760 49.5680 144° Southeast 538 619 37,000  Level FlightAware
09:57PM 28.4070 49.6250 144° Southeast 538 619 37,000  Level FlightAware
09:58PM 28.3220 49.6950 144° Southeast 538 619 37,000  Level FlightAware
09:59PM 28.2530 49.7520 144° Southeast 538 619 37,000  Level FlightAware
10:01PM 28.1205 50.0159 120° Southeast  Level Estimated
10:02PM 28.0467 50.1622 120° Southeast  Level Estimated
10:03PM 27.9727 50.3083 120° Southeast  Level Estimated
10:04PM 27.8986 50.4542 120° Southeast  Level Estimated
10:05PM 27.8244 50.6000 120° Southeast  Level Estimated
10:06PM 27.7499 50.7455 120° Southeast  Level Estimated
10:07PM 27.6753 50.8908 120° Southeast  Level Estimated
10:07PM 27.0930 50.6860 120° Southeast 539 620 37,000  Level FlightAware
10:08PM 27.0240 50.7420 144° Southeast 538 619 37,000  Level FlightAware
10:08PM 26.9790 50.7940 134° Southeast 569 655 37,000  Level FlightAware
10:09PM 26.9390 50.8780 118° Southeast 590 679 37,000  Level FlightAware
10:10PM 26.8820 51.0330 112° Southeast 589 678 37,000  Level FlightAware
10:11PM 26.7970 51.2590 113° Southeast 589 678 37,000  Level FlightAware
10:11PM 26.7560 51.3560 115° Southeast 583 671 37,000  Level FlightAware
10:12PM 26.6880 51.5150 116° Southeast 583 671 37,000  Level FlightAware
10:13PM 26.6390 51.6310 115° Southeast 582 670 37,000  Level FlightAware
10:14PM 26.5870 51.7540 115° Southeast 582 670 37,000  Level FlightAware
10:15PM 26.5400 51.8660 115° Southeast 584 672 37,000  Level FlightAware
10:15PM 26.4880 51.9890 115° Southeast 587 676 37,000  Level FlightAware
10:16PM 26.4410 52.1000 115° Southeast 590 679 37,000  Level FlightAware
10:17PM 26.3870 52.2270 115° Southeast 596 686 37,000  Level FlightAware
10:17PM 26.3420 52.3330 115° Southeast 594 684 37,000  Level FlightAware
10:18PM 26.2920 52.4490 116° Southeast 594 684 37,000 -240 Level FlightAware
10:19PM 26.2400 52.5710 115° Southeast 591 680 36,700 -1,320 Descending FlightAware
10:19PM 26.1980 52.6710 115° Southeast 583 671 35,200 -2,700 Descending FlightAware
10:20PM 26.1420 52.7990 116° Southeast 578 665 32,900 -2,880 Descending FlightAware
10:21PM 26.0940 52.9110 115° Southeast 571 657 31,200 -2,280 Descending FlightAware
10:22PM 26.0530 53.0060 116° Southeast 563 648 29,900 -2,220 Descending FlightAware
10:22PM 26.0050 53.1150 116° Southeast 551 634 28,300 -2,100 Descending FlightAware
10:23PM 25.9530 53.2350 116° Southeast 552 635 27,000 -1,560 Descending FlightAware
10:24PM 25.9100 53.3350 116° Southeast 548 631 26,100 -1,320 Descending FlightAware
10:24PM 25.8750 53.4350 111° Southeast 520 598 25,300 -600 Descending FlightAware
10:25PM 25.8450 53.5370 108° East 520 598 25,300  Level FlightAware
10:26PM 25.8200 53.6230 108° East 520 598 25,300  Level FlightAware
10:26PM 25.7950 53.7090 108° East 520 598 25,300 -2,280 Level FlightAware
10:27PM 25.7540 53.8350 110° East 433 498 21,900 -2,880 Descending FlightAware
10:28PM 25.7370 53.8920 108° East 422 486 21,500 -1,020 Descending FlightAware
10:29PM 25.7030 54.0000 109° East 404 465 20,600 -960 Descending FlightAware
10:29PM 25.6720 54.1040 108° East 396 456 19,900 -480 Descending FlightAware
10:30PM 25.6530 54.1700 108° East 396 456 19,900  Level FlightAware
10:31PM 25.6340 54.2350 108° East 396 456 19,900  Level FlightAware
10:32PM 25.6100 54.3180 108° East 396 456 19,900 -780 Level FlightAware
10:34PM 25.5123 54.6089 110° East  Level Estimated
10:35PM 25.4601 54.7632 110° East  Level Estimated
10:36PM 25.4078 54.9173 111° Southeast  Level Estimated
10:37PM 25.3554 55.0714 111° Southeast  Level Estimated
10:37PM 25.7130 54.7220 111° Southeast 257 296 15,000  Level FlightAware
10:38PM 25.7300 54.6820 295° West 257 296 15,000  Level FlightAware
10:39PM 25.7520 54.6310 296° West 257 296 15,000  Level FlightAware
10:39PM 25.7690 54.5900 295° West 257 296 15,000 -1,920 Level FlightAware
10:41PM 25.7430 54.4710 256° West 248 285 10,700 -1,920 Descending FlightAware
10:42PM 25.7120 54.4440 218° Southwest 248 285 10,700  Level FlightAware
10:42PM 25.6810 54.4170 218° Southwest 248 285 10,700 -300 Level FlightAware
10:45PM 25.5292 54.7569 116° Southeast  Level Estimated
10:46PM 25.4630 54.9044 116° Southeast  Level Estimated
10:47PM 25.3966 55.0517 116° Southeast  Level Estimated
10:48PM 25.3300 55.1989 117° Southeast  Level Estimated
10:49PM 25.2634 55.3459 117° Southeast  Level Estimated
10:50PM 25.2550 55.3643 117° Southeast  Level Estimated
10:51PM 25.2550 55.3643 211° Southwest  Level Estimated
10:52PM 25.2550 55.3643 211° Southwest  Level Estimated
10:52PM 25.3650 55.3100 211° Southwest 269 310 8,100  Level FlightAware
10:52PM 25.3490 55.3380 122° Southeast 269 310 8,100  Level FlightAware
10:53PM 25.3380 55.3590 120° Southeast 269 310 8,100  Level FlightAware
10:53PM 25.3220 55.3870 122° Southeast 268 308 8,100  Level FlightAware
10:53PM 25.3050 55.4190 120° Southeast 266 306 8,100  Level FlightAware
10:54PM 25.2870 55.4510 122° Southeast 249 287 8,100  Level FlightAware
10:54PM 25.2750 55.4730 121° Southeast 242 278 8,100  Level FlightAware
10:55PM 25.2560 55.5070 122° Southeast 242 278 8,100  Level FlightAware
10:55PM 25.2410 55.5350 121° Southeast 242 278 8,100  Level FlightAware
10:56PM 25.2360 55.5440 122° Southeast 242 278 8,100  Level FlightAware
10:56PM 25.2220 55.5710 120° Southeast 242 278 8,100 -600 Level FlightAware
10:59PM 25.2550 55.3643 280° West  Level Estimated
11:00PM 25.2550 55.3643 211° Southwest  Level Estimated
11:01PM 25.2550 55.3643 211° Southwest  Level Estimated
11:02PM 25.2550 55.3643 211° Southwest  Level Estimated
11:03PM 25.2550 55.3643 211° Southwest  Level Estimated
11:04PM 25.2550 55.3643 211° Southwest  Level Estimated
11:05PM 25.2550 55.3643 211° Southwest  Level Estimated
11:06PM 25.2550 55.3643 211° Southwest  Level Estimated
11:07PM 25.2550 55.3643 211° Southwest  Level Estimated
11:08PM 25.2550 55.3643 211° Southwest  Level Estimated
11:09PM 25.2550 55.3643 211° Southwest  Level Estimated
11:10PM 25.2370 55.3930 302° West 144 166 100  Level FlightAware
11:10PM 25.2340 55.4060 104° East 144 166 100  Level FlightAware